Time;durP1;ratioP1;P1;durP2;ratioP2;P2;SDS_P1;SDS_P2;PMS_P1;PMS_P2;Temp;Humidity;BMP_temperature;BMP_pressure;BME280_temperature;BME280_humidity;BME280_pressure;Samples;Min_cycle;Max_cycle;Signal;HPM_P1;HPM_P2
2023/07/13 00:02:12;;;;;;;10.95;5.60;;;;;;;18.10;100.00;96218.59;5076159;28;20045;-75
2023/07/13 00:04:39;;;;;;;9.15;5.53;;;;;;;18.16;100.00;96216.31;5077817;28;20059;-75
2023/07/13 00:07:06;;;;;;;9.73;5.90;;;;;;;18.07;100.00;96218.56;5078600;28;20051;-75
2023/07/13 00:09:32;;;;;;;9.75;5.43;;;;;;;18.03;100.00;96224.00;5079631;28;20513;-75
2023/07/13 00:11:59;;;;;;;12.25;5.15;;;;;;;17.96;100.00;96212.88;5079001;28;20047;-75
2023/07/13 00:14:27;;;;;;;10.15;5.18;;;;;;;17.90;100.00;96215.13;5077696;28;20048;-75
2023/07/13 00:16:54;;;;;;;10.35;5.05;;;;;;;17.97;100.00;96193.22;5072668;28;20044;-75
2023/07/13 00:19:20;;;;;;;7.30;5.25;;;;;;;17.89;100.00;96191.50;5070972;28;20514;-75
2023/07/13 00:21:48;;;;;;;9.48;4.53;;;;;;;17.91;100.00;96188.41;5071741;28;20131;-75
2023/07/13 00:24:21;;;;;;;7.38;4.57;;;;;;;17.79;100.00;96192.13;5071137;28;20040;-75
2023/07/13 00:26:48;;;;;;;7.47;5.10;;;;;;;17.82;100.00;96194.16;5071152;28;20127;-76
2023/07/13 00:29:16;;;;;;;9.75;5.38;;;;;;;17.81;100.00;96203.59;5071068;28;20044;-75
2023/07/13 00:31:43;;;;;;;7.45;4.50;;;;;;;17.76;100.00;96209.41;5071687;28;20090;-75
2023/07/13 00:34:10;;;;;;;6.88;4.80;;;;;;;17.71;100.00;96212.44;5070835;28;20043;-76
2023/07/13 00:36:36;;;;;;;6.50;4.70;;;;;;;17.70;100.00;96213.59;5071598;28;20052;-75
2023/07/13 00:39:04;;;;;;;9.82;4.50;;;;;;;17.72;100.00;96214.03;5070654;28;20047;-76
2023/07/13 00:41:32;;;;;;;8.73;5.43;;;;;;;17.73;100.00;96215.63;5071200;28;20056;-75
2023/07/13 00:43:58;;;;;;;13.88;5.03;;;;;;;17.68;100.00;96207.66;5071077;28;20098;-74
2023/07/13 00:46:28;;;;;;;9.20;4.95;;;;;;;17.68;100.00;96215.91;5070448;28;20037;-75
2023/07/13 00:48:58;;;;;;;9.90;4.78;;;;;;;17.72;100.00;96214.03;5070932;28;20131;-75
2023/07/13 00:51:31;;;;;;;10.18;4.13;;;;;;;17.71;100.00;96218.75;5070581;28;20094;-75
2023/07/13 00:54:01;;;;;;;7.82;4.40;;;;;;;17.69;100.00;96215.53;5070561;28;20036;-75
2023/07/13 00:56:29;;;;;;;8.77;4.45;;;;;;;17.80;100.00;96207.50;5070866;28;20395;-75
2023/07/13 00:58:57;;;;;;;8.52;4.53;;;;;;;17.74;100.00;96201.50;5070750;28;20052;-75
2023/07/13 01:01:23;;;;;;;8.55;4.50;;;;;;;17.69;100.00;96193.50;5070351;28;20488;-76
2023/07/13 01:03:50;;;;;;;7.63;4.20;;;;;;;17.64;100.00;96206.78;5070626;28;20519;-75
2023/07/13 01:06:17;;;;;;;7.50;4.53;;;;;;;17.59;100.00;96209.84;5070241;28;20404;-75
2023/07/13 01:08:43;;;;;;;7.32;3.78;;;;;;;17.50;100.00;96206.56;5070518;28;20040;-75
2023/07/13 01:11:10;;;;;;;7.68;3.88;;;;;;;17.61;100.00;96218.56;5069999;28;20040;-76
2023/07/13 01:13:38;;;;;;;8.65;4.30;;;;;;;17.63;100.00;96210.72;5069520;28;20044;-75
2023/07/13 01:16:12;;;;;;;7.25;4.45;;;;;;;17.67;100.00;96206.84;5070061;28;20048;-76
2023/07/13 01:18:39;;;;;;;9.15;4.20;;;;;;;17.73;100.00;96199.91;5070443;28;20044;-75
2023/07/13 01:21:07;;;;;;;9.82;4.30;;;;;;;17.59;100.00;96202.41;5069666;28;20527;-75
2023/07/13 01:23:33;;;;;;;8.25;4.47;;;;;;;17.67;100.00;96195.84;5070490;28;20052;-75
2023/07/13 01:26:00;;;;;;;5.90;3.92;;;;;;;17.70;100.00;96194.31;5070543;28;20044;-75
2023/07/13 01:28:28;;;;;;;7.88;4.38;;;;;;;17.75;100.00;96180.28;5070131;28;20041;-75
2023/07/13 01:30:57;;;;;;;7.55;4.45;;;;;;;17.79;100.00;96181.09;5070636;28;20052;-75
2023/07/13 01:33:23;;;;;;;6.60;3.88;;;;;;;17.82;100.00;96183.13;5069824;28;20400;-75
2023/07/13 01:35:50;;;;;;;9.05;4.55;;;;;;;17.82;100.00;96177.63;5070452;28;20040;-76
2023/07/13 01:38:21;;;;;;;6.47;3.55;;;;;;;17.90;100.00;96175.78;5069489;28;20071;-75
2023/07/13 01:40:48;;;;;;;7.22;4.00;;;;;;;17.76;100.00;96170.84;5070119;28;20576;-75
2023/07/13 01:43:15;;;;;;;10.27;4.18;;;;;;;17.80;100.00;96179.97;5069530;28;20501;-75
2023/07/13 01:45:43;;;;;;;6.57;3.70;;;;;;;17.76;100.00;96175.56;5069981;28;20052;-75
2023/07/13 01:48:10;;;;;;;8.13;3.35;;;;;;;17.76;100.00;96168.09;5069840;28;20053;-75
2023/07/13 01:50:37;;;;;;;9.77;3.58;;;;;;;17.72;100.00;96165.28;5070091;28;20048;-75
2023/07/13 01:53:03;;;;;;;9.75;3.58;;;;;;;17.69;100.00;96170.69;5069383;28;20048;-75
2023/07/13 01:55:33;;;;;;;9.30;3.78;;;;;;;17.70;100.00;96175.06;5069872;28;20041;-75
2023/07/13 01:57:59;;;;;;;6.93;3.80;;;;;;;17.74;100.00;96178.66;5070068;28;20055;-75
2023/07/13 02:00:26;;;;;;;11.60;3.80;;;;;;;17.74;100.00;96189.69;5069402;28;20037;-75
2023/07/13 02:02:52;;;;;;;5.05;3.30;;;;;;;17.82;100.00;96191.41;5069911;28;20059;-75
2023/07/13 02:05:19;;;;;;;10.55;3.80;;;;;;;17.90;100.00;96204.09;5069203;28;20044;-75
2023/07/13 02:07:46;;;;;;;7.35;3.35;;;;;;;17.98;100.00;96208.59;5069972;28;20048;-75
2023/07/13 02:10:13;;;;;;;8.68;4.10;;;;;;;17.89;100.00;96213.53;5069331;28;20048;-75
2023/07/13 02:12:41;;;;;;;7.72;3.63;;;;;;;17.85;100.00;96212.69;5069823;28;20044;-75
2023/07/13 02:15:09;;;;;;;8.95;4.20;;;;;;;17.84;100.00;96205.59;5069153;28;20048;-75
2023/07/13 02:17:36;;;;;;;9.63;4.00;;;;;;;17.83;100.00;96206.75;5069745;28;20507;-75
2023/07/13 02:20:04;;;;;;;9.45;3.97;;;;;;;17.85;100.00;96212.69;5069150;28;20080;-76
2023/07/13 02:22:31;;;;;;;11.60;4.30;;;;;;;17.78;100.00;96200.78;5069466;28;20560;-76
2023/07/13 02:24:57;;;;;;;7.68;3.75;;;;;;;17.72;100.00;96197.50;5069827;28;20044;-75
2023/07/13 02:27:24;;;;;;;7.57;4.30;;;;;;;17.62;100.00;96198.09;5069079;28;20044;-75
2023/07/13 02:29:52;;;;;;;7.93;4.28;;;;;;;17.48;100.00;96204.94;5069416;28;20052;-75
2023/07/13 02:32:18;;;;;;;9.13;4.22;;;;;;;17.45;100.00;96202.94;5069230;28;20052;-75
2023/07/13 02:34:45;;;;;;;8.07;4.47;;;;;;;17.35;100.00;96206.28;5069710;28;20408;-75
2023/07/13 02:37:11;;;;;;;10.40;4.13;;;;;;;17.34;100.00;96204.72;5069221;28;20045;-75
2023/07/13 02:39:38;;;;;;;6.82;4.43;;;;;;;17.44;100.00;96208.81;5069259;28;20715;-75
2023/07/13 02:42:05;;;;;;;7.32;4.10;;;;;;;17.50;100.00;96217.56;5068853;28;20543;-76
2023/07/13 02:44:32;;;;;;;7.15;3.88;;;;;;;17.50;100.00;96214.81;5069403;28;20055;-75
2023/07/13 02:46:59;;;;;;;8.95;4.45;;;;;;;17.50;100.00;96209.31;5069658;28;20044;-75
2023/07/13 02:49:26;;;;;;;8.07;3.65;;;;;;;17.57;100.00;96210.22;5070889;28;20076;-75
2023/07/13 02:51:52;;;;;;;6.35;3.80;;;;;;;17.49;100.00;96205.75;5070071;28;20443;-75
2023/07/13 02:54:19;;;;;;;4.35;3.55;;;;;;;17.51;100.00;96213.66;5070132;28;20048;-75
2023/07/13 02:56:45;;;;;;;8.73;3.97;;;;;;;17.55;100.00;96214.50;5071574;28;20036;-75
2023/07/13 02:59:12;;;;;;;5.63;3.70;;;;;;;17.57;100.00;96217.69;5071073;28;20399;-75
2023/07/13 03:01:38;;;;;;;7.72;3.90;;;;;;;17.49;100.00;96227.78;5072598;28;20131;-75
2023/07/13 03:04:06;;;;;;;7.00;4.22;;;;;;;17.45;100.00;96233.22;5071506;28;20514;-76
2023/07/13 03:06:33;;;;;;;9.52;4.30;;;;;;;17.50;100.00;96234.88;5071614;28;20052;-75
2023/07/13 03:09:00;;;;;;;6.10;4.50;;;;;;;17.46;100.00;96234.81;5068794;28;20157;-74
2023/07/13 03:11:27;;;;;;;5.75;3.85;;;;;;;17.57;100.00;96229.50;5069111;28;20094;-75
2023/07/13 03:13:54;;;;;;;8.27;4.80;;;;;;;17.64;100.00;96245.34;5069106;28;20071;-75
2023/07/13 03:16:21;;;;;;;9.43;4.85;;;;;;;17.68;100.00;96248.97;5068793;28;20132;-75
2023/07/13 03:18:48;;;;;;;9.05;4.80;;;;;;;17.66;100.00;96251.28;5071446;28;20487;-75
2023/07/13 03:21:16;;;;;;;7.50;4.15;;;;;;;17.78;100.00;96250.34;5072312;28;20143;-75
2023/07/13 03:23:43;;;;;;;8.40;5.20;;;;;;;17.78;100.00;96240.13;5072737;28;20072;-75
2023/07/13 03:26:12;;;;;;;7.50;5.22;;;;;;;17.74;100.00;96245.56;5072270;28;20503;-75
2023/07/13 03:28:39;;;;;;;8.15;5.60;;;;;;;17.75;100.00;96249.13;5072433;28;20504;-76
2023/07/13 03:31:09;;;;;;;11.90;5.60;;;;;;;17.68;100.00;96246.19;5072228;28;20052;-76
2023/07/13 03:33:36;;;;;;;9.13;6.07;;;;;;;17.66;100.00;96237.53;5072488;28;20055;-75
2023/07/13 03:36:04;;;;;;;11.35;6.55;;;;;;;17.62;100.00;96244.91;5072176;28;20496;-76
2023/07/13 03:38:31;;;;;;;13.48;6.07;;;;;;;17.53;100.00;96260.88;5072619;28;20072;-75
2023/07/13 03:40:58;;;;;;;12.43;6.68;;;;;;;17.52;100.00;96259.28;5072299;28;20044;-75
2023/07/13 03:43:24;;;;;;;11.77;7.30;;;;;;;17.40;100.00;96263.81;5052345;28;20044;-76
2023/07/13 03:45:51;;;;;;;12.05;6.70;;;;;;;17.48;100.00;96264.72;5073936;28;20044;-75
2023/07/13 03:48:17;;;;;;;12.73;6.90;;;;;;;17.48;100.00;96264.72;5073428;28;20412;-76
2023/07/13 03:50:44;;;;;;;15.45;7.80;;;;;;;17.38;100.00;96270.81;5074005;28;20614;-75
2023/07/13 03:53:10;;;;;;;13.88;8.23;;;;;;;17.31;100.00;96265.97;5071540;28;20431;-75
2023/07/13 03:55:38;;;;;;;12.65;7.78;;;;;;;17.25;100.00;96272.13;5073170;28;20050;-76
2023/07/13 03:58:27;;;;;;;13.50;7.70;;;;;;;17.21;100.00;96272.84;5072351;28;20052;-76
2023/07/13 04:00:53;;;;;;;12.93;7.38;;;;;;;17.18;100.00;96267.31;5072529;28;20049;-77
2023/07/13 04:03:20;;;;;;;13.75;7.85;;;;;;;17.21;100.00;96272.84;5071560;28;20048;-76
2023/07/13 04:05:47;;;;;;;10.55;7.25;;;;;;;17.09;100.00;96269.47;5072315;28;20048;-75
2023/07/13 04:08:13;;;;;;;11.57;7.13;;;;;;;16.98;100.00;96273.97;5071755;28;20048;-75
2023/07/13 04:10:41;;;;;;;11.90;7.07;;;;;;;17.04;100.00;96278.00;5071671;28;20471;-75
2023/07/13 04:13:08;;;;;;;11.55;7.18;;;;;;;17.00;100.00;96271.63;5071211;28;20675;-76
2023/07/13 04:15:34;;;;;;;11.27;7.50;;;;;;;16.87;100.00;96269.03;5071858;28;20053;-75
2023/07/13 04:18:01;;;;;;;13.65;7.20;;;;;;;16.89;100.00;96272.19;5071639;28;20048;-75
2023/07/13 04:20:27;;;;;;;9.15;7.15;;;;;;;16.93;100.00;96281.31;5071785;28;20041;-75
2023/07/13 04:22:54;;;;;;;11.20;6.32;;;;;;;17.04;100.00;96289.00;5071788;28;20052;-76
2023/07/13 04:25:21;;;;;;;11.57;6.85;;;;;;;17.01;100.00;96278.72;5071520;28;20072;-75
2023/07/13 04:27:50;;;;;;;8.43;5.85;;;;;;;17.13;100.00;96286.84;5072484;28;20049;-76
2023/07/13 04:30:17;;;;;;;11.40;7.32;;;;;;;17.01;100.00;96284.22;5072142;28;20044;-76
2023/07/13 04:32:43;;;;;;;11.45;7.78;;;;;;;16.93;100.00;96284.09;5072548;28;20536;-75
2023/07/13 04:35:10;;;;;;;12.85;7.18;;;;;;;17.04;100.00;96292.56;5072386;28;20045;-76
2023/07/13 04:37:36;;;;;;;12.85;8.10;;;;;;;17.05;100.00;96290.59;5073107;28;20048;-75
2023/07/13 04:40:04;;;;;;;12.70;7.95;;;;;;;17.04;100.00;96300.00;5072416;28;20052;-77
2023/07/13 04:42:30;;;;;;;13.50;8.23;;;;;;;17.11;100.00;96295.44;5072909;28;20147;-75
2023/07/13 04:44:58;;;;;;;14.25;7.90;;;;;;;17.12;100.00;96301.75;5072864;28;20041;-75
2023/07/13 04:47:25;;;;;;;12.82;7.60;;;;;;;17.00;100.00;96304.63;5072394;28;20052;-76
2023/07/13 04:49:51;;;;;;;11.30;7.68;;;;;;;16.99;100.00;96294.78;5071477;28;20040;-75
2023/07/13 04:52:18;;;;;;;12.18;7.65;;;;;;;17.06;100.00;96303.19;5070580;28;20539;-75
2023/07/13 04:54:44;;;;;;;15.75;8.20;;;;;;;17.11;100.00;96294.66;5070625;28;20055;-75
2023/07/13 04:57:11;;;;;;;11.23;7.32;;;;;;;17.12;100.00;96301.75;5070717;28;20059;-76
2023/07/13 04:59:37;;;;;;;11.85;7.75;;;;;;;17.21;100.00;96311.38;5071128;28;20140;-75
2023/07/13 05:02:05;;;;;;;11.32;7.93;;;;;;;17.30;100.00;96316.69;5070454;28;20052;-75
2023/07/13 05:04:32;;;;;;;12.05;7.85;;;;;;;17.30;100.00;96313.13;5070796;28;20059;-76
2023/07/13 05:06:59;;;;;;;11.40;7.60;;;;;;;17.21;100.00;96313.34;5070754;28;20051;-75
2023/07/13 05:09:26;;;;;;;9.88;7.03;;;;;;;17.33;100.00;96324.22;5070247;28;20062;-75
2023/07/13 05:11:53;;;;;;;15.23;7.35;;;;;;;17.31;100.00;96315.50;5070858;28;20123;-75
2023/07/13 05:14:19;;;;;;;12.73;7.13;;;;;;;17.20;100.00;96320.81;5069465;28;20040;-75
2023/07/13 05:16:46;;;;;;;11.35;6.30;;;;;;;17.29;100.00;96323.34;5070520;28;20063;-75
2023/07/13 05:19:13;;;;;;;13.20;6.50;;;;;;;17.21;100.00;96318.84;5070233;28;20056;-75
2023/07/13 05:21:41;;;;;;;9.13;5.68;;;;;;;17.34;100.00;96336.03;5070816;28;20052;-75
2023/07/13 05:24:07;;;;;;;9.25;6.07;;;;;;;17.29;100.00;96330.81;5069742;28;20047;-75
2023/07/13 05:26:34;;;;;;;8.77;5.80;;;;;;;17.31;100.00;96326.53;5070566;28;20052;-75
2023/07/13 05:29:00;;;;;;;7.80;5.65;;;;;;;17.41;100.00;96336.16;5070656;28;20047;-75
2023/07/13 05:31:27;;;;;;;11.07;6.00;;;;;;;17.41;100.00;96339.69;5069861;28;20450;-74
2023/07/13 05:33:54;;;;;;;12.00;6.38;;;;;;;17.31;100.00;96336.72;5069830;28;20041;-75
2023/07/13 05:36:22;;;;;;;8.45;5.85;;;;;;;17.35;100.00;96338.41;5069927;28;20411;-75
2023/07/13 05:38:48;;;;;;;9.60;5.03;;;;;;;17.43;100.00;96337.38;5070244;28;20063;-75
2023/07/13 05:41:15;;;;;;;8.25;5.60;;;;;;;17.46;100.00;96344.13;5069322;28;20781;-75
2023/07/13 05:43:41;;;;;;;8.63;4.93;;;;;;;17.39;100.00;96344.78;5070060;28;20044;-75
2023/07/13 05:46:07;;;;;;;9.38;5.47;;;;;;;17.42;100.00;96341.28;5069462;28;20036;-75
2023/07/13 05:48:34;;;;;;;9.68;5.88;;;;;;;17.22;100.00;96342.44;5070278;28;20699;-75
2023/07/13 05:51:02;;;;;;;10.18;5.72;;;;;;;17.20;100.00;96342.03;5070127;28;20049;-75
2023/07/13 05:53:30;;;;;;;11.30;5.85;;;;;;;17.07;100.00;96344.13;5069419;28;20052;-75
2023/07/13 05:55:56;;;;;;;10.50;5.50;;;;;;;16.94;100.00;96340.69;5066251;28;20056;-75
2023/07/13 05:58:23;;;;;;;10.85;5.90;;;;;;;16.95;100.00;96339.53;5070281;28;20047;-75
2023/07/13 06:00:49;;;;;;;8.60;5.90;;;;;;;16.94;100.00;96348.94;5070246;28;20060;-75
2023/07/13 06:03:16;;;;;;;7.80;5.40;;;;;;;16.94;100.00;96348.94;5069648;28;20713;-75
2023/07/13 06:05:42;;;;;;;11.38;5.63;;;;;;;16.99;100.00;96352.56;5070603;28;20044;-75
2023/07/13 06:08:09;;;;;;;7.88;5.47;;;;;;;17.03;100.00;96347.94;5075462;28;20045;-76
2023/07/13 06:10:37;;;;;;;7.10;5.70;;;;;;;17.05;100.00;96345.63;5075525;28;20059;-76
2023/07/13 06:13:05;;;;;;;9.65;6.20;;;;;;;17.11;100.00;96346.94;5075505;28;20044;-77
2023/07/13 06:15:31;;;;;;;9.25;5.60;;;;;;;17.19;100.00;96352.22;5076618;28;20496;-75
2023/07/13 06:17:58;;;;;;;8.32;6.10;;;;;;;17.15;100.00;96356.06;5076439;28;20056;-76
2023/07/13 06:20:24;;;;;;;6.88;5.00;;;;;;;17.19;100.00;96354.97;5076673;28;20051;-76
2023/07/13 06:22:51;;;;;;;9.65;6.00;;;;;;;17.19;100.00;96354.19;5078989;28;20064;-75
2023/07/13 06:25:17;;;;;;;10.23;6.03;;;;;;;17.14;100.00;96362.72;5078101;28;20040;-75
2023/07/13 06:27:45;;;;;;;9.70;6.00;;;;;;;17.21;100.00;96362.88;5078799;28;20053;-76
2023/07/13 06:30:13;;;;;;;9.68;6.20;;;;;;;17.23;100.00;96368.81;5077771;28;20040;-75
2023/07/13 06:32:39;;;;;;;9.75;5.90;;;;;;;17.28;100.00;96365.78;5066892;28;20079;-76
2023/07/13 06:35:06;;;;;;;8.70;5.43;;;;;;;17.38;100.00;96365.22;5077416;28;20040;-76
2023/07/13 06:37:33;;;;;;;10.10;5.93;;;;;;;17.43;100.00;96361.34;5077306;28;20048;-75
2023/07/13 06:39:59;;;;;;;11.90;5.88;;;;;;;17.45;100.00;96365.34;5071261;28;20051;-75
2023/07/13 06:42:26;;;;;;;12.63;6.10;;;;;;;17.56;100.00;96370.28;5069154;28;20056;-75
2023/07/13 06:44:54;;;;;;;13.18;6.95;;;;;;;17.70;100.00;96376.09;5069570;28;20052;-76
2023/07/13 06:47:20;;;;;;;9.30;5.60;;;;;;;17.66;100.00;96375.22;5068883;28;20053;-75
2023/07/13 06:49:47;;;;;;;10.43;5.72;;;;;;;17.80;100.00;96374.69;5069994;28;21662;-75
2023/07/13 06:52:13;;;;;;;8.93;4.90;;;;;;;17.87;100.00;96370.13;5071188;28;20404;-77
2023/07/13 06:54:40;;;;;;;13.05;5.40;;;;;;;17.94;100.00;96374.97;5073566;28;20442;-76
2023/07/13 06:57:07;;;;;;;11.27;5.13;;;;;;;18.14;100.00;96386.75;5073859;28;20507;-76
2023/07/13 06:59:33;;;;;;;6.25;4.65;;;;;;;18.15;100.00;96391.09;5073800;28;20055;-77
2023/07/13 07:02:01;;;;;;;12.82;4.68;;;;;;;18.21;100.00;96403.41;5073855;28;20052;-76
2023/07/13 07:04:27;;;;;;;8.80;3.58;;;;;;;17.93;100.00;96409.22;5072517;28;20036;-76
2023/07/13 07:06:54;;;;;;;5.57;3.50;;;;;;;17.88;100.00;96404.00;5072985;28;20067;-76
2023/07/13 07:09:21;;;;;;;6.10;3.45;;;;;;;17.96;100.00;96401.03;5072240;28;20041;-76
2023/07/13 07:11:48;;;;;;;8.90;4.20;;;;;;;17.90;100.00;96402.44;5071061;28;20049;-76
2023/07/13 07:14:14;;;;;;;5.45;3.55;;;;;;;17.90;100.00;96398.91;5071972;28;20045;-75
2023/07/13 07:16:40;;;;;;;6.68;3.40;;;;;;;17.98;100.00;96406.94;5072928;28;20047;-75
2023/07/13 07:19:08;;;;;;;7.57;3.60;;;;;;;18.03;100.00;96405.06;5072857;28;20499;-75
2023/07/13 07:21:35;;;;;;;6.30;3.15;;;;;;;18.13;100.00;96404.47;5072782;28;20072;-75
2023/07/13 07:24:03;;;;;;;8.43;3.63;;;;;;;17.95;100.00;96409.63;5072253;28;20037;-75
2023/07/13 07:26:29;;;;;;;7.87;2.97;;;;;;;17.94;100.00;96408.84;5072720;28;20726;-74
2023/07/13 07:28:55;;;;;;;7.45;3.05;;;;;;;17.78;98.04;96410.88;5073162;28;20055;-76
2023/07/13 07:31:22;;;;;;;4.43;3.03;;;;;;;17.84;93.58;96412.19;5071599;28;20053;-76
2023/07/13 07:33:49;;;;;;;10.63;2.58;;;;;;;17.80;92.34;96416.84;5071824;28;20419;-74
2023/07/13 07:36:17;;;;;;;6.22;2.88;;;;;;;17.69;95.89;96418.53;5071773;28;20044;-75
2023/07/13 07:38:44;;;;;;;6.63;3.00;;;;;;;17.81;95.96;96420.38;5072622;28;20048;-75
2023/07/13 07:41:11;;;;;;;9.82;3.00;;;;;;;18.02;97.46;96406.22;5072234;28;20059;-75
2023/07/13 07:43:37;;;;;;;6.28;3.25;;;;;;;18.15;98.21;96418.66;5071975;28;20427;-76
2023/07/13 07:46:04;;;;;;;4.90;2.85;;;;;;;18.33;95.97;96414.28;5071828;28;20041;-78
2023/07/13 07:48:33;;;;;;;6.57;2.53;;;;;;;18.43;91.03;96408.16;5072477;28;20037;-75
2023/07/13 07:50:59;;;;;;;4.53;2.25;;;;;;;18.35;86.50;96422.97;5072443;28;20068;-76
2023/07/13 07:53:27;;;;;;;8.00;2.42;;;;;;;18.31;86.80;96429.59;5071633;28;20056;-75
2023/07/13 07:55:54;;;;;;;4.97;2.75;;;;;;;18.24;89.05;96424.75;5072663;28;20048;-74
2023/07/13 07:58:20;;;;;;;8.40;2.78;;;;;;;18.11;85.44;96417.81;5071504;28;20071;-75
2023/07/13 08:00:47;;;;;;;5.78;2.50;;;;;;;17.94;84.53;96425.38;5072377;28;20059;-75
2023/07/13 08:03:13;;;;;;;7.18;2.58;;;;;;;17.88;86.53;96437.84;5071179;28;20060;-74
2023/07/13 08:05:39;;;;;;;7.38;2.58;;;;;;;17.86;86.34;96433.88;5072360;28;20048;-75
2023/07/13 08:08:06;;;;;;;5.10;2.60;;;;;;;17.86;89.77;96436.63;5071655;28;20059;-75
2023/07/13 08:10:36;;;;;;;5.28;2.70;;;;;;;17.85;84.74;96444.06;5072218;28;20052;-74
2023/07/13 08:13:03;;;;;;;6.82;2.42;;;;;;;17.81;85.09;96442.44;5071528;28;20040;-76
2023/07/13 08:15:29;;;;;;;4.82;2.50;;;;;;;17.85;85.77;96444.06;5071607;28;20045;-74
2023/07/13 08:17:55;;;;;;;7.13;2.60;;;;;;;17.94;86.03;96458.44;5071661;28;20048;-74
2023/07/13 08:20:22;;;;;;;7.40;2.28;;;;;;;17.87;81.13;96463.00;5071266;28;20048;-75
2023/07/13 08:22:48;;;;;;;7.55;2.30;;;;;;;17.94;80.71;96463.94;5071578;28;20048;-74
2023/07/13 08:25:15;;;;;;;4.55;2.30;;;;;;;17.90;82.43;96462.25;5071388;28;20056;-75
2023/07/13 08:27:43;;;;;;;7.10;2.60;;;;;;;17.92;82.65;96466.25;5071211;28;20051;-75
2023/07/13 08:30:10;;;;;;;6.97;2.08;;;;;;;17.95;83.52;96465.53;5071092;28;20566;-75
2023/07/13 08:32:37;;;;;;;6.22;2.50;;;;;;;18.00;81.11;96473.50;5071887;28;20056;-74
2023/07/13 08:35:04;;;;;;;4.40;2.15;;;;;;;18.06;81.82;96473.22;5071039;28;20037;-76
2023/07/13 08:37:30;;;;;;;7.93;2.42;;;;;;;18.07;82.09;96477.59;5070809;28;20052;-74
2023/07/13 08:39:57;;;;;;;4.55;2.45;;;;;;;18.06;81.19;96481.47;5071069;28;20044;-75
2023/07/13 08:42:34;;;;;;;6.43;2.78;;;;;;;17.86;80.89;96484.25;5071063;28;20048;-73
2023/07/13 08:45:13;;;;;;;10.32;2.88;;;;;;;17.95;81.63;96487.56;5071642;28;20051;-74
2023/07/13 08:47:45;;;;;;;7.20;2.65;;;;;;;18.01;81.76;96485.34;5064554;28;20047;-74
2023/07/13 08:50:14;;;;;;;7.45;2.40;;;;;;;17.98;81.51;96481.34;5070830;28;20557;-74
2023/07/13 08:52:43;;;;;;;4.72;2.13;;;;;;;18.03;81.13;96479.47;5070410;28;20056;-73
2023/07/13 08:55:17;;;;;;;9.90;2.90;;;;;;;18.06;80.32;96486.97;5070287;28;20056;-74
2023/07/13 08:57:50;;;;;;;8.32;2.45;;;;;;;18.01;81.61;96488.09;5071392;28;20090;-75
2023/07/13 09:00:18;;;;;;;4.13;2.00;;;;;;;18.12;79.79;96496.56;5070593;28;20072;-73
2023/07/13 09:02:51;;;;;;;9.40;2.42;;;;;;;18.13;81.83;96500.94;5071172;28;20053;-74
2023/07/13 09:05:23;;;;;;;9.52;2.40;;;;;;;17.98;80.76;96499.84;5070733;28;20064;-73
2023/07/13 09:08:04;;;;;;;9.07;2.50;;;;;;;17.90;80.43;96504.38;5070922;28;20102;-74
2023/07/13 09:10:33;;;;;;;6.90;2.55;;;;;;;17.93;80.72;96503.66;5070896;28;20506;-73
2023/07/13 09:13:19;;;;;;;5.82;1.88;;;;;;;17.99;74.03;96509.69;5071782;28;20044;-74
2023/07/13 09:15:49;;;;;;;5.40;1.92;;;;;;;17.93;73.32;96516.66;5070662;28;20043;-74
2023/07/13 09:18:22;;;;;;;8.48;1.80;;;;;;;17.67;69.71;96525.50;5070544;28;20052;-74
2023/07/13 09:20:52;;;;;;;4.32;1.58;;;;;;;17.35;66.33;96511.81;5071468;28;20419;-75
2023/07/13 09:23:23;;;;;;;3.40;1.35;;;;;;;17.50;68.23;96503.88;5071202;28;20059;-75
2023/07/13 09:25:55;;;;;;;3.05;1.10;;;;;;;17.57;70.13;96504.03;5071743;28;20048;-75
2023/07/13 09:28:26;;;;;;;2.78;1.35;;;;;;;17.57;72.71;96498.53;5070679;28;20442;-73
2023/07/13 09:31:02;;;;;;;7.47;1.60;;;;;;;17.43;66.79;96499.78;5071479;28;20040;-75
2023/07/13 09:33:30;;;;;;;3.08;1.48;;;;;;;17.60;67.81;96497.81;5070253;28;20075;-74
2023/07/13 09:35:58;;;;;;;5.45;1.45;;;;;;;17.65;71.78;96494.78;5070563;28;20052;-73
2023/07/13 09:38:26;;;;;;;4.18;1.50;;;;;;;17.71;71.46;96501.59;5069774;28;20446;-73
2023/07/13 09:41:16;;;;;;;5.00;1.58;;;;;;;17.81;71.23;96508.53;5069629;28;20637;-74
2023/07/13 09:44:11;;;;;;;4.00;1.75;;;;;;;17.87;74.01;96505.13;5070093;28;20045;-75
2023/07/13 09:46:41;;;;;;;4.03;1.52;;;;;;;17.85;68.43;96507.41;5070238;28;20523;-74
2023/07/13 09:49:11;;;;;;;3.97;1.35;;;;;;;17.95;67.80;96514.31;5070016;28;20041;-75
2023/07/13 09:51:37;;;;;;;4.53;1.40;;;;;;;18.09;68.22;96508.31;5070243;28;20064;-74
2023/07/13 09:54:04;;;;;;;3.03;1.40;;;;;;;18.17;70.36;96510.06;5069971;28;20068;-76
2023/07/13 09:56:31;;;;;;;5.57;1.70;;;;;;;18.18;67.19;96511.66;5070278;28;20130;-75
2023/07/13 09:58:58;;;;;;;3.25;1.35;;;;;;;18.35;69.32;96499.38;5070107;28;20056;-76
2023/07/13 10:01:36;;;;;;;3.22;1.60;;;;;;;18.51;72.63;96500.06;5069834;28;20520;-75
2023/07/13 10:04:12;;;;;;;3.35;1.45;;;;;;;18.56;67.87;96502.53;5069559;28;20080;-75
2023/07/13 10:06:40;;;;;;;4.13;1.45;;;;;;;18.69;66.16;96500.44;5070181;28;20515;-75
2023/07/13 10:09:08;;;;;;;3.08;1.80;;;;;;;18.75;64.36;96508.03;5068910;28;20098;-75
2023/07/13 10:11:36;;;;;;;5.68;1.65;;;;;;;18.82;63.46;96506.56;5070179;28;20052;-74
2023/07/13 10:14:10;;;;;;;3.75;1.40;;;;;;;18.84;66.01;96510.53;5069448;28;20435;-74
2023/07/13 10:16:37;;;;;;;3.78;1.80;;;;;;;18.98;68.94;96507.22;5069464;28;20044;-74
2023/07/13 10:19:11;;;;;;;3.47;1.73;;;;;;;18.98;68.48;96502.50;5069722;28;20044;-75
2023/07/13 10:21:43;;;;;;;3.92;1.60;;;;;;;19.14;68.51;96507.09;5070013;28;20048;-74
2023/07/13 10:24:16;;;;;;;6.00;1.70;;;;;;;19.15;65.72;96508.69;5069186;28;20048;-74
2023/07/13 10:26:46;;;;;;;;;;;;;;;19.28;63.11;96512.84;5071508;28;20059;-74
2023/07/13 10:29:17;;;;;;;3.58;1.65;;;;;;;19.43;66.85;96509.16;5073490;28;19920;-74
2023/07/13 10:31:46;;;;;;;4.15;1.50;;;;;;;19.64;63.65;96513.44;5074033;28;20068;-74
2023/07/13 10:34:14;;;;;;;7.28;1.90;;;;;;;19.84;65.95;96512.13;5073059;28;20040;-74
2023/07/13 10:36:44;;;;;;;4.63;1.80;;;;;;;20.00;65.53;96514.72;5086327;28;20044;-73
2023/07/13 10:39:17;;;;;;;4.07;2.10;;;;;;;20.09;63.93;96517.97;5093525;28;20076;-73
2023/07/13 10:41:47;;;;;;;7.07;1.50;;;;;;;20.31;63.08;96513.50;5094015;28;20068;-73
2023/07/13 10:44:25;;;;;;;6.07;1.90;;;;;;;20.54;60.69;96516.94;5080234;28;20051;-73
2023/07/13 10:46:53;;;;;;;4.60;1.83;;;;;;;20.72;62.09;96506.06;5073479;28;20048;-73
2023/07/13 10:49:22;;;;;;;5.85;1.73;;;;;;;20.85;60.34;96514.88;5073387;28;20060;-73
2023/07/13 10:51:48;;;;;;;5.18;1.90;;;;;;;20.88;60.60;96514.13;5073779;28;20063;-73
2023/07/13 10:54:21;;;;;;;8.07;3.05;;;;;;;21.05;58.67;96513.50;5073032;28;20048;-73
2023/07/13 10:57:08;;;;;;;3.65;1.40;;;;;;;20.94;56.76;96512.63;5073058;28;20048;-73
2023/07/13 10:59:35;;;;;;;5.00;2.33;;;;;;;20.82;59.21;96521.19;5073363;28;20079;-73
2023/07/13 11:02:12;;;;;;;4.03;1.50;;;;;;;21.13;58.01;96503.25;5073220;28;20565;-73
2023/07/13 11:04:45;;;;;;;6.22;1.98;;;;;;;21.30;59.59;96507.41;5073134;28;20513;-73
2023/07/13 11:07:21;;;;;;;4.43;1.60;;;;;;;21.50;56.04;96511.50;5072847;28;20041;-73
2023/07/13 11:09:52;;;;;;;7.10;2.00;;;;;;;21.35;57.45;96515.34;5073343;28;20496;-73
2023/07/13 11:12:52;;;;;;;3.90;1.60;;;;;;;21.32;57.61;96510.56;5071237;28;20509;-74
2023/07/13 11:15:43;;;;;;;8.32;2.10;;;;;;;21.28;56.92;96509.72;5072423;28;20491;-73
2023/07/13 11:18:21;;;;;;;6.22;1.90;;;;;;;21.42;56.73;96515.41;5072096;28;20049;-74
2023/07/13 11:20:50;;;;;;;6.65;2.05;;;;;;;21.22;55.01;96522.34;5073143;28;20707;-74
2023/07/13 11:23:42;;;;;;;4.53;1.40;;;;;;;21.21;53.78;96521.53;5072403;28;20052;-74
2023/07/13 11:26:39;;;;;;;5.82;1.48;;;;;;;21.29;53.89;96523.16;5072608;28;20060;-74
2023/07/13 11:29:10;;;;;;;6.72;1.58;;;;;;;21.01;55.99;96518.19;5072484;28;20110;-75
2023/07/13 11:31:37;;;;;;;3.45;1.60;;;;;;;21.24;54.94;96520.75;5072381;28;20101;-74
2023/07/13 11:34:15;;;;;;;4.65;1.80;;;;;;;21.19;53.98;96514.78;5069371;28;20063;-76